createdAt,value
2022-12-14T00:00:24.593Z,6.20
2022-12-14T00:03:13.517Z,6.28
2022-12-14T00:05:42.535Z,5.63
2022-12-14T00:08:12.138Z,5.88
2022-12-14T00:10:41.618Z,6.53
2022-12-14T00:13:15.041Z,6.03
2022-12-14T00:15:43.501Z,6.07
2022-12-14T00:18:11.978Z,6.88
2022-12-14T00:20:41.399Z,6.00
2022-12-14T00:23:09.427Z,7.32
2022-12-14T00:25:37.948Z,4.88
2022-12-14T00:28:06.828Z,5.32
2022-12-14T00:30:35.153Z,6.68
2022-12-14T00:33:03.083Z,5.20
2022-12-14T00:35:31.333Z,6.80
2022-12-14T00:37:59.293Z,5.88
2022-12-14T00:40:28.381Z,5.47
2022-12-14T00:42:56.419Z,5.00
2022-12-14T00:45:25.105Z,5.65
2022-12-14T00:47:53.057Z,4.45
2022-12-14T00:50:21.401Z,4.95
2022-12-14T00:52:49.368Z,5.63
2022-12-14T00:55:17.868Z,4.32
2022-12-14T00:57:45.974Z,5.18
2022-12-14T01:00:15.547Z,4.78
2022-12-14T01:02:45.161Z,4.30
2022-12-14T01:05:13.658Z,5.55
2022-12-14T01:07:41.728Z,4.53
2022-12-14T01:10:10.258Z,4.65
2022-12-14T01:12:38.460Z,4.00
2022-12-14T01:15:07.870Z,4.20
2022-12-14T01:17:36.070Z,4.57
2022-12-14T01:20:04.947Z,4.30
2022-12-14T01:22:33.030Z,4.40
2022-12-14T01:25:02.082Z,4.43
2022-12-14T01:27:30.386Z,3.97
2022-12-14T01:29:58.806Z,4.32
2022-12-14T01:32:26.897Z,4.60
2022-12-14T01:34:56.298Z,4.10
2022-12-14T01:37:24.267Z,4.55
2022-12-14T01:39:52.557Z,4.13
2022-12-14T01:42:21.240Z,4.75
2022-12-14T01:44:55.709Z,4.00
2022-12-14T01:47:30.907Z,4.20
2022-12-14T01:50:33.364Z,4.22
2022-12-14T01:53:06.718Z,4.05
2022-12-14T01:55:45.266Z,3.33
2022-12-14T01:58:21.261Z,4.07
2022-12-14T02:00:54.110Z,4.30
2022-12-14T02:03:36.892Z,3.95
2022-12-14T02:06:13.496Z,4.35
2022-12-14T02:08:47.100Z,3.70
2022-12-14T02:13:45.517Z,5.00
2022-12-14T02:16:17.741Z,4.20
2022-12-14T02:18:46.218Z,4.53
2022-12-14T02:21:36.297Z,4.20
2022-12-14T02:24:29.022Z,4.57
2022-12-14T02:27:28.086Z,5.22
2022-12-14T02:30:14.807Z,4.57
2022-12-14T02:33:08.108Z,5.30
2022-12-14T02:35:36.214Z,4.57
2022-12-14T02:38:49.592Z,4.45
2022-12-14T02:41:26.608Z,4.28
2022-12-14T02:44:22.114Z,3.65
2022-12-14T02:46:50.648Z,3.78
2022-12-14T02:49:40.072Z,5.85
2022-12-14T02:52:16.497Z,4.25
2022-12-14T02:54:58.444Z,3.97
2022-12-14T02:57:46.238Z,4.25
2022-12-14T03:00:15.676Z,4.15
2022-12-14T03:02:45.871Z,4.30
2022-12-14T03:05:15.232Z,4.72
2022-12-14T03:08:09.047Z,3.85
2022-12-14T03:11:02.741Z,4.32
2022-12-14T03:13:57.305Z,4.80
2022-12-14T03:16:36.200Z,5.78
2022-12-14T03:19:18.234Z,5.20
2022-12-14T03:21:55.588Z,5.40
2022-12-14T03:24:30.568Z,5.82
2022-12-14T03:27:07.918Z,6.88
2022-12-14T03:29:53.047Z,9.10
2022-12-14T03:32:25.617Z,12.20
2022-12-14T03:35:00.451Z,13.93
2022-12-14T03:37:54.920Z,14.98
2022-12-14T03:40:32.418Z,14.38
2022-12-14T03:43:12.223Z,17.10
2022-12-14T03:46:06.401Z,18.67
2022-12-14T03:48:43.614Z,18.20
2022-12-14T03:51:36.565Z,19.63
2022-12-14T03:54:04.998Z,22.13
2022-12-14T03:56:49.678Z,19.42
2022-12-14T03:59:47.715Z,21.40
2022-12-14T04:05:25.950Z,24.25
2022-12-14T04:08:08.657Z,22.10
2022-12-14T04:11:02.247Z,22.58
2022-12-14T04:13:55.612Z,24.55
2022-12-14T04:16:47.357Z,23.15
2022-12-14T04:19:30.023Z,25.00
2022-12-14T04:22:16.671Z,25.52
2022-12-14T04:25:29.218Z,25.50
2022-12-14T04:28:06.506Z,26.33
2022-12-14T04:30:39.711Z,25.17
2022-12-14T04:33:31.818Z,24.83
2022-12-14T04:36:03.826Z,25.10
2022-12-14T04:38:39.687Z,28.30
2022-12-14T04:41:13.326Z,25.05
2022-12-14T04:43:45.657Z,25.02
2022-12-14T04:46:25.332Z,27.25
2022-12-14T04:49:00.530Z,27.58
2022-12-14T04:51:39.746Z,27.13
2022-12-14T04:54:22.516Z,25.20
2022-12-14T04:57:19.420Z,28.88
2022-12-14T04:59:49.144Z,27.92
2022-12-14T05:02:19.865Z,27.25
2022-12-14T05:05:06.057Z,26.45
2022-12-14T05:07:51.808Z,26.00
2022-12-14T05:10:40.737Z,27.08
2022-12-14T05:13:21.148Z,27.58
2022-12-14T05:15:54.591Z,27.20
2022-12-14T05:18:23.549Z,27.05
2022-12-14T05:20:52.947Z,27.08
2022-12-14T05:23:21.886Z,31.58
2022-12-14T05:25:50.356Z,25.40
2022-12-14T05:28:18.550Z,26.13
2022-12-14T05:30:48.985Z,27.90
2022-12-14T05:33:21.328Z,28.67
2022-12-14T05:35:50.988Z,27.77
2022-12-14T05:38:19.549Z,28.65
2022-12-14T05:40:47.938Z,27.73
2022-12-14T05:43:16.387Z,27.75
2022-12-14T05:45:44.675Z,26.08
2022-12-14T05:48:12.608Z,27.25
2022-12-14T05:50:42.101Z,27.70
2022-12-14T05:53:10.660Z,30.40
2022-12-14T05:55:39.542Z,28.20
2022-12-14T05:58:07.648Z,28.10
2022-12-14T06:00:36.060Z,28.02
2022-12-14T06:03:04.225Z,26.73
2022-12-14T06:05:32.786Z,28.83
2022-12-14T06:08:00.840Z,25.50
2022-12-14T06:10:29.128Z,29.05
2022-12-14T06:12:57.767Z,29.58
2022-12-14T06:15:33.807Z,28.70
2022-12-14T06:18:02.193Z,27.52
2022-12-14T06:20:30.605Z,27.58
2022-12-14T06:22:58.637Z,28.08
2022-12-14T06:25:27.016Z,27.67
2022-12-14T06:27:55.098Z,28.73
2022-12-14T06:30:23.539Z,29.50
2022-12-14T06:32:51.599Z,28.80
2022-12-14T06:35:19.957Z,31.33
2022-12-14T06:37:49.069Z,28.10
2022-12-14T06:40:17.578Z,30.45
2022-12-14T06:42:47.595Z,28.85
2022-12-14T06:45:16.138Z,29.52
2022-12-14T06:47:44.186Z,30.92
2022-12-14T06:50:12.978Z,29.85
2022-12-14T06:52:42.127Z,30.17
2022-12-14T06:55:10.510Z,30.88
2022-12-14T06:57:38.639Z,30.95
2022-12-14T07:00:08.058Z,30.38
2022-12-14T07:02:36.282Z,31.48
2022-12-14T07:05:07.021Z,32.70
2022-12-14T07:07:36.346Z,30.38
2022-12-14T07:10:06.298Z,29.58
2022-12-14T07:12:35.872Z,28.63
2022-12-14T07:15:05.344Z,29.10
2022-12-14T07:17:36.606Z,28.35
2022-12-14T07:20:07.193Z,29.85
2022-12-14T07:22:36.891Z,30.20
2022-12-14T07:25:05.815Z,29.95
2022-12-14T07:27:34.018Z,29.27
2022-12-14T07:30:02.481Z,29.67
2022-12-14T07:32:31.379Z,29.90
2022-12-14T07:34:59.745Z,30.67
2022-12-14T07:37:27.759Z,28.33
2022-12-14T07:40:11.252Z,26.67
2022-12-14T07:42:39.568Z,28.67
2022-12-14T07:45:11.391Z,26.08
2022-12-14T07:47:39.818Z,27.42
2022-12-14T07:50:08.357Z,26.25
2022-12-14T07:52:37.782Z,27.58
2022-12-14T07:55:06.419Z,27.02
2022-12-14T07:57:34.966Z,25.17
2022-12-14T08:00:04.147Z,26.15
2022-12-14T08:02:40.196Z,25.90
2022-12-14T08:05:12.495Z,27.17
2022-12-14T08:07:41.287Z,25.13
2022-12-14T08:10:09.697Z,24.50
2022-12-14T08:12:38.227Z,26.38
2022-12-14T08:15:07.526Z,24.58
2022-12-14T08:17:35.786Z,22.48
2022-12-14T08:20:04.569Z,21.48
2022-12-14T08:22:32.867Z,22.52
2022-12-14T08:25:00.937Z,19.10
2022-12-14T08:27:31.329Z,20.17
2022-12-14T08:29:59.537Z,20.95
2022-12-14T08:32:34.149Z,19.23
2022-12-14T08:35:02.716Z,21.90
2022-12-14T08:37:31.117Z,21.65
2022-12-14T08:39:59.076Z,22.48
2022-12-14T08:42:27.473Z,22.08
2022-12-14T08:44:55.680Z,25.92
2022-12-14T08:47:24.158Z,21.30
2022-12-14T08:49:52.245Z,20.85
2022-12-14T08:52:21.914Z,20.95
2022-12-14T08:54:50.815Z,21.88
2022-12-14T08:57:19.256Z,23.60
2022-12-14T09:00:03.191Z,22.83
2022-12-14T09:02:32.060Z,22.42
2022-12-14T09:05:00.336Z,21.27
2022-12-14T09:07:29.551Z,20.33
2022-12-14T09:09:57.947Z,21.90
2022-12-14T09:12:26.568Z,21.58
2022-12-14T09:14:54.990Z,20.30
2022-12-14T09:17:23.014Z,22.23
2022-12-14T09:19:51.275Z,20.35
2022-12-14T09:22:19.287Z,21.17
2022-12-14T09:24:48.415Z,23.15
2022-12-14T09:27:17.019Z,21.52
2022-12-14T09:29:46.407Z,23.23
2022-12-14T09:32:14.457Z,22.50
2022-12-14T09:34:42.777Z,23.70
2022-12-14T09:37:10.846Z,23.42
2022-12-14T09:39:39.365Z,24.02
2022-12-14T09:42:16.316Z,23.98
2022-12-14T09:44:47.229Z,24.05
2022-12-14T09:47:17.996Z,24.83
2022-12-14T09:49:49.996Z,23.55
2022-12-14T09:52:40.436Z,22.92
2022-12-14T09:55:24.226Z,24.48
2022-12-14T09:58:21.422Z,24.65
2022-12-14T10:00:59.610Z,22.15
2022-12-14T10:04:03.745Z,22.02
2022-12-14T10:07:10.705Z,22.10
2022-12-14T10:09:41.599Z,22.67
2022-12-14T10:12:34.496Z,22.38
2022-12-14T10:15:26.217Z,21.92
2022-12-14T10:18:33.982Z,22.90
2022-12-14T10:21:16.429Z,22.02
2022-12-14T10:23:52.166Z,19.83
2022-12-14T10:26:23.350Z,18.58
2022-12-14T10:29:03.676Z,19.08
2022-12-14T10:31:49.943Z,19.30
2022-12-14T10:34:20.760Z,19.45
2022-12-14T10:37:03.711Z,20.92
2022-12-14T10:39:54.338Z,19.70
2022-12-14T10:42:51.254Z,18.52
2022-12-14T10:45:40.483Z,17.67
2022-12-14T10:48:21.776Z,17.38
2022-12-14T10:50:54.211Z,16.80
2022-12-14T10:53:34.578Z,16.88
2022-12-14T10:56:33.989Z,16.55
2022-12-14T10:59:24.091Z,16.27
2022-12-14T11:02:04.071Z,16.23
2022-12-14T11:04:45.206Z,15.68
2022-12-14T11:07:16.879Z,14.88
2022-12-14T11:09:45.299Z,16.67
2022-12-14T11:12:13.662Z,16.77
2022-12-14T11:14:55.800Z,17.20
2022-12-14T11:17:33.298Z,17.23
2022-12-14T11:20:23.109Z,17.55
2022-12-14T11:22:59.305Z,16.52
2022-12-14T11:25:30.594Z,16.65
2022-12-14T11:28:03.317Z,17.33
2022-12-14T11:30:31.779Z,17.52
2022-12-14T11:33:00.356Z,18.63
2022-12-14T11:35:28.481Z,16.90
2022-12-14T11:38:00.579Z,18.00
2022-12-14T11:40:28.704Z,17.00
2022-12-14T11:43:04.277Z,15.90
2022-12-14T11:45:34.263Z,15.90
2022-12-14T11:48:16.619Z,16.88
2022-12-14T11:50:48.646Z,14.45
2022-12-14T11:53:19.815Z,16.23
2022-12-14T11:55:54.258Z,16.17
2022-12-14T11:58:27.858Z,14.63
2022-12-14T12:01:13.536Z,14.05
2022-12-14T12:03:52.786Z,13.73
2022-12-14T12:06:30.401Z,14.18
2022-12-14T12:09:03.132Z,13.07
2022-12-14T12:11:33.778Z,17.27
2022-12-14T12:14:14.081Z,15.85
2022-12-14T12:16:43.967Z,19.90
2022-12-14T12:19:25.437Z,15.02
2022-12-14T12:21:55.270Z,11.98
2022-12-14T12:24:34.656Z,13.77
2022-12-14T12:27:13.498Z,14.75
2022-12-14T12:29:49.822Z,14.98
2022-12-14T12:32:24.161Z,14.57
2022-12-14T12:35:11.318Z,12.10
2022-12-14T12:38:06.288Z,12.48
2022-12-14T12:40:49.556Z,10.77
2022-12-14T12:43:30.436Z,12.10
2022-12-14T12:46:20.559Z,10.52
2022-12-14T12:48:54.717Z,10.05
2022-12-14T12:51:27.378Z,9.95
2022-12-14T12:54:11.560Z,10.65
2022-12-14T12:56:48.454Z,12.13
2022-12-14T12:59:33.283Z,10.88
2022-12-14T13:02:17.292Z,10.90
2022-12-14T13:04:52.604Z,9.30
2022-12-14T13:07:30.947Z,10.07
2022-12-14T13:10:06.344Z,10.15
2022-12-14T13:12:42.761Z,9.95
2022-12-14T13:15:23.781Z,9.57
2022-12-14T13:18:40.818Z,10.55
2022-12-14T13:21:31.142Z,9.15
2022-12-14T13:24:00.314Z,9.70
2022-12-14T13:26:59.121Z,9.25
2022-12-14T13:29:53.984Z,9.80
2022-12-14T13:32:59.683Z,10.57
2022-12-14T13:35:29.295Z,12.80
2022-12-14T13:38:31.129Z,12.57
2022-12-14T13:41:34.315Z,13.35
2022-12-14T13:44:35.709Z,16.30
2022-12-14T13:47:13.493Z,14.93
2022-12-14T13:49:42.915Z,15.52
2022-12-14T13:52:34.643Z,16.25
2022-12-14T13:55:06.961Z,14.23
2022-12-14T13:57:35.598Z,13.68
2022-12-14T14:00:05.388Z,13.95
2022-12-14T14:02:41.430Z,13.88
2022-12-14T14:05:16.686Z,14.52
2022-12-14T14:07:58.925Z,12.57
2022-12-14T14:10:32.535Z,13.30
2022-12-14T14:13:30.347Z,14.35
2022-12-14T14:16:28.417Z,13.05
2022-12-14T14:19:23.498Z,14.20
2022-12-14T14:22:26.409Z,14.20
2022-12-14T14:25:25.976Z,13.83
2022-12-14T14:27:55.347Z,14.35
2022-12-14T14:30:26.907Z,13.18
2022-12-14T14:33:07.499Z,14.05
2022-12-14T14:35:42.453Z,13.30
2022-12-14T14:38:32.442Z,14.20
2022-12-14T14:41:18.654Z,13.77
2022-12-14T14:43:53.144Z,13.25
2022-12-14T14:46:36.252Z,16.13
2022-12-14T14:49:07.077Z,14.73
2022-12-14T14:51:38.690Z,14.10
2022-12-14T14:55:06.432Z,13.13
2022-12-14T14:57:57.606Z,14.75
2022-12-14T15:00:26.436Z,12.35
2022-12-14T15:02:56.045Z,12.43
2022-12-14T15:05:43.956Z,9.25
2022-12-14T15:08:18.456Z,8.88
2022-12-14T15:10:48.406Z,7.70
2022-12-14T15:13:28.890Z,6.43
2022-12-14T15:15:57.657Z,6.80
2022-12-14T15:18:30.845Z,38.70
2022-12-14T15:21:02.237Z,7.82
2022-12-14T15:23:49.596Z,7.22
2022-12-14T15:26:32.785Z,7.90
2022-12-14T15:29:04.904Z,8.40
2022-12-14T15:31:38.594Z,7.72
2022-12-14T15:34:08.261Z,7.15
2022-12-14T15:36:42.546Z,8.85
2022-12-14T15:39:33.068Z,8.90
2022-12-14T15:42:17.620Z,7.25
2022-12-14T15:44:55.207Z,7.40
2022-12-14T15:47:31.617Z,8.32
2022-12-14T15:50:25.861Z,8.18
2022-12-14T15:53:12.799Z,7.50
2022-12-14T15:55:43.204Z,7.90
2022-12-14T15:58:17.299Z,10.18
2022-12-14T16:00:52.181Z,12.23
2022-12-14T16:03:43.145Z,15.30
2022-12-14T16:06:14.937Z,17.05
2022-12-14T16:08:58.121Z,17.85
2022-12-14T16:11:38.176Z,18.58
2022-12-14T16:14:15.381Z,18.30
2022-12-14T16:16:45.646Z,19.83
2022-12-14T16:19:27.747Z,19.45
2022-12-14T16:22:09.881Z,19.42
2022-12-14T16:24:42.206Z,19.15
2022-12-14T16:27:18.769Z,19.60
2022-12-14T16:30:05.888Z,20.42
2022-12-14T16:32:34.625Z,19.67
2022-12-14T16:35:03.288Z,19.35
2022-12-14T16:37:33.382Z,18.85
2022-12-14T16:40:02.578Z,19.50
2022-12-14T16:42:32.808Z,21.85
2022-12-14T16:45:01.231Z,18.95
2022-12-14T16:47:36.047Z,19.77
2022-12-14T16:50:40.094Z,19.67
2022-12-14T16:53:27.876Z,20.98
2022-12-14T16:56:01.626Z,20.48
2022-12-14T16:58:30.815Z,20.27
2022-12-14T17:01:01.887Z,19.33
2022-12-14T17:03:32.065Z,20.35
2022-12-14T17:06:04.151Z,18.95
2022-12-14T17:08:34.979Z,20.92
2022-12-14T17:11:03.481Z,19.88
2022-12-14T17:13:32.290Z,20.42
2022-12-14T17:16:07.576Z,20.63
2022-12-14T17:18:40.793Z,21.92
2022-12-14T17:21:19.639Z,22.20
2022-12-14T17:23:48.472Z,21.00
2022-12-14T17:26:26.521Z,22.98
2022-12-14T17:28:56.816Z,22.98
2022-12-14T17:31:27.605Z,22.20
2022-12-14T17:33:57.981Z,21.67
2022-12-14T17:36:26.155Z,22.63
2022-12-14T17:38:54.606Z,23.00
2022-12-14T17:41:27.642Z,22.15
2022-12-14T17:43:57.426Z,20.60
2022-12-14T17:46:26.195Z,21.40
2022-12-14T17:48:54.809Z,21.88
2022-12-14T17:51:26.120Z,22.08
2022-12-14T17:53:58.841Z,21.63
2022-12-14T17:56:27.002Z,22.50
2022-12-14T17:58:55.546Z,22.98
2022-12-14T18:01:25.939Z,23.25
2022-12-14T18:03:54.691Z,21.73
2022-12-14T18:06:22.972Z,22.10
2022-12-14T18:08:51.571Z,24.23
2022-12-14T18:11:22.889Z,23.23
2022-12-14T18:13:52.951Z,23.55
2022-12-14T18:16:23.154Z,25.42
2022-12-14T18:18:57.422Z,23.60
2022-12-14T18:23:57.262Z,22.42
2022-12-14T18:26:25.472Z,23.25
2022-12-14T18:28:55.611Z,22.40
2022-12-14T18:31:29.925Z,24.80
2022-12-14T18:33:59.444Z,23.52
2022-12-14T18:36:27.871Z,23.67
2022-12-14T18:38:57.711Z,26.52
2022-12-14T18:41:29.785Z,26.77
2022-12-14T18:44:01.579Z,25.80
2022-12-14T18:46:29.771Z,24.58
2022-12-14T18:48:58.351Z,23.45
2022-12-14T18:51:28.060Z,24.15
2022-12-14T18:53:58.501Z,24.25
2022-12-14T18:56:28.338Z,26.33
2022-12-14T18:58:57.941Z,27.52
2022-12-14T19:01:26.805Z,23.50
2022-12-14T19:03:55.425Z,25.92
2022-12-14T19:09:15.077Z,25.08
2022-12-14T19:11:43.951Z,34.10
2022-12-14T19:14:13.051Z,46.70
2022-12-14T19:16:41.210Z,27.25
2022-12-14T19:19:10.060Z,27.42
2022-12-14T19:21:38.733Z,27.85
2022-12-14T19:24:08.819Z,26.17
2022-12-14T19:26:39.389Z,25.98
2022-12-14T19:29:09.027Z,28.85
2022-12-14T19:31:37.253Z,29.73
2022-12-14T19:34:07.246Z,27.65
2022-12-14T19:36:35.403Z,27.30
2022-12-14T19:39:05.133Z,27.05
2022-12-14T19:41:33.231Z,26.67
2022-12-14T19:44:01.761Z,27.45
2022-12-14T19:46:29.879Z,28.45
2022-12-14T19:49:00.264Z,28.95
2022-12-14T19:51:28.382Z,27.65
2022-12-14T19:53:57.741Z,26.20
2022-12-14T19:56:25.830Z,28.63
2022-12-14T19:58:57.930Z,28.35
2022-12-14T20:01:26.144Z,27.38
2022-12-14T20:03:54.735Z,30.58
2022-12-14T20:06:23.060Z,28.00
2022-12-14T20:08:51.641Z,27.88
2022-12-14T20:11:20.852Z,28.20
2022-12-14T20:13:54.710Z,32.20
2022-12-14T20:16:26.416Z,34.20
2022-12-14T20:18:54.987Z,31.38
2022-12-14T20:21:24.563Z,40.75
2022-12-14T20:23:53.130Z,29.60
2022-12-14T20:26:23.062Z,30.38
2022-12-14T20:28:56.561Z,31.95
2022-12-14T20:31:26.263Z,31.48
2022-12-14T20:33:54.864Z,29.35
2022-12-14T20:36:23.151Z,30.58
2022-12-14T20:38:58.420Z,27.13
2022-12-14T20:41:26.567Z,29.30
2022-12-14T20:43:55.542Z,27.40
2022-12-14T20:46:31.537Z,27.50
2022-12-14T20:49:05.005Z,30.45
2022-12-14T20:51:36.100Z,29.55
2022-12-14T20:54:07.395Z,28.90
2022-12-14T20:56:37.250Z,27.58
2022-12-14T20:59:06.523Z,27.15
2022-12-14T21:01:37.620Z,22.73
2022-12-14T21:04:07.924Z,23.20
2022-12-14T21:06:41.394Z,22.00
2022-12-14T21:12:04.546Z,18.38
2022-12-14T21:14:48.294Z,18.98
2022-12-14T21:17:17.787Z,19.08
2022-12-14T21:19:49.285Z,20.05
2022-12-14T21:22:22.615Z,18.65
2022-12-14T21:25:07.754Z,18.15
2022-12-14T21:27:39.523Z,19.55
2022-12-14T21:30:11.711Z,18.38
2022-12-14T21:32:40.099Z,24.02
2022-12-14T21:35:09.229Z,21.42
2022-12-14T21:37:39.074Z,20.20
2022-12-14T21:40:08.785Z,19.40
2022-12-14T21:42:36.885Z,19.63
2022-12-14T21:45:05.565Z,22.10
2022-12-14T21:47:34.344Z,21.48
2022-12-14T21:50:03.501Z,21.67
2022-12-14T21:52:31.784Z,22.88
2022-12-14T21:55:00.415Z,22.95
2022-12-14T21:57:50.582Z,24.30
2022-12-14T22:00:19.891Z,24.60
2022-12-14T22:02:48.237Z,23.38
2022-12-14T22:05:17.819Z,26.98
2022-12-14T22:07:47.084Z,28.23
2022-12-14T22:10:21.212Z,27.17
2022-12-14T22:12:51.089Z,26.83
2022-12-14T22:15:20.025Z,26.50
2022-12-14T22:17:50.223Z,27.33
2022-12-14T22:20:20.008Z,30.40
2022-12-14T22:22:48.714Z,29.13
2022-12-14T22:25:17.659Z,29.08
2022-12-14T22:27:49.530Z,30.23
2022-12-14T22:30:19.931Z,30.13
2022-12-14T22:32:48.158Z,28.58
2022-12-14T22:35:16.730Z,29.60
2022-12-14T22:37:44.984Z,29.08
2022-12-14T22:40:14.398Z,29.65
2022-12-14T22:42:42.455Z,29.65
2022-12-14T22:45:10.985Z,31.02
2022-12-14T22:47:39.004Z,31.40
2022-12-14T22:50:07.817Z,32.30
2022-12-14T22:52:35.951Z,30.95
2022-12-14T22:55:04.531Z,30.23
2022-12-14T22:57:39.399Z,30.83
2022-12-14T23:00:16.566Z,30.33
2022-12-14T23:02:48.183Z,27.15
2022-12-14T23:05:18.660Z,27.13
2022-12-14T23:07:46.847Z,27.58
2022-12-14T23:10:33.783Z,29.42
2022-12-14T23:13:20.549Z,27.52
2022-12-14T23:16:07.664Z,30.30
2022-12-14T23:18:54.386Z,29.80
2022-12-14T23:21:42.311Z,28.15
2022-12-14T23:24:29.163Z,28.63
2022-12-14T23:27:16.130Z,30.45
2022-12-14T23:30:02.948Z,29.30
2022-12-14T23:32:50.058Z,27.40
2022-12-14T23:35:36.612Z,27.85
2022-12-14T23:38:25.414Z,25.05
2022-12-14T23:41:18.202Z,24.85
2022-12-14T23:44:06.469Z,25.27
2022-12-14T23:46:53.662Z,21.45
2022-12-14T23:49:40.435Z,21.88
2022-12-14T23:52:27.046Z,21.42
2022-12-14T23:55:13.544Z,17.60
2022-12-14T23:58:00.356Z,17.00
